sensor_id;sensor_type;location;lat;lon;timestamp;P1;durP1;ratioP1;P2;durP2;ratioP2
7162;SDS011;3623;47.098;15.446;2022-07-06T00:02:16;4.63;;;4.40;;
7162;SDS011;3623;47.098;15.446;2022-07-06T00:04:43;5.70;;;5.30;;
7162;SDS011;3623;47.098;15.446;2022-07-06T00:07:10;5.13;;;4.83;;
7162;SDS011;3623;47.098;15.446;2022-07-06T00:09:45;4.57;;;4.27;;
7162;SDS011;3623;47.098;15.446;2022-07-06T00:12:12;5.83;;;5.07;;
7162;SDS011;3623;47.098;15.446;2022-07-06T00:14:41;5.00;;;4.70;;
7162;SDS011;3623;47.098;15.446;2022-07-06T00:17:08;5.37;;;5.07;;
7162;SDS011;3623;47.098;15.446;2022-07-06T00:19:35;5.40;;;5.07;;
7162;SDS011;3623;47.098;15.446;2022-07-06T00:22:02;5.63;;;5.23;;
7162;SDS011;3623;47.098;15.446;2022-07-06T00:24:30;5.00;;;4.60;;
7162;SDS011;3623;47.098;15.446;2022-07-06T00:26:57;8.33;;;5.07;;
7162;SDS011;3623;47.098;15.446;2022-07-06T00:29:24;6.40;;;5.97;;
7162;SDS011;3623;47.098;15.446;2022-07-06T00:31:52;6.00;;;5.70;;
7162;SDS011;3623;47.098;15.446;2022-07-06T00:34:20;5.53;;;5.23;;
7162;SDS011;3623;47.098;15.446;2022-07-06T00:36:47;6.10;;;5.70;;
7162;SDS011;3623;47.098;15.446;2022-07-06T00:39:20;5.60;;;5.07;;
7162;SDS011;3623;47.098;15.446;2022-07-06T00:41:48;6.90;;;6.30;;
7162;SDS011;3623;47.098;15.446;2022-07-06T00:44:15;7.67;;;5.40;;
7162;SDS011;3623;47.098;15.446;2022-07-06T00:46:42;6.47;;;5.87;;
7162;SDS011;3623;47.098;15.446;2022-07-06T00:49:11;6.53;;;6.03;;
7162;SDS011;3623;47.098;15.446;2022-07-06T00:51:59;5.80;;;5.30;;
7162;SDS011;3623;47.098;15.446;2022-07-06T00:54:27;5.83;;;5.47;;
7162;SDS011;3623;47.098;15.446;2022-07-06T00:56:56;9.43;;;5.80;;
7162;SDS011;3623;47.098;15.446;2022-07-06T00:59:24;5.73;;;5.23;;
7162;SDS011;3623;47.098;15.446;2022-07-06T01:01:53;8.30;;;6.80;;
7162;SDS011;3623;47.098;15.446;2022-07-06T01:04:22;8.37;;;6.30;;
7162;SDS011;3623;47.098;15.446;2022-07-06T01:06:49;6.87;;;6.47;;
7162;SDS011;3623;47.098;15.446;2022-07-06T01:09:16;6.57;;;6.07;;
7162;SDS011;3623;47.098;15.446;2022-07-06T01:11:44;7.30;;;6.37;;
7162;SDS011;3623;47.098;15.446;2022-07-06T01:14:11;6.00;;;5.70;;
7162;SDS011;3623;47.098;15.446;2022-07-06T01:16:40;7.53;;;6.93;;
7162;SDS011;3623;47.098;15.446;2022-07-06T01:19:13;6.30;;;5.90;;
7162;SDS011;3623;47.098;15.446;2022-07-06T01:21:42;6.37;;;5.97;;
7162;SDS011;3623;47.098;15.446;2022-07-06T01:24:09;6.00;;;5.60;;
7162;SDS011;3623;47.098;15.446;2022-07-06T01:26:36;6.33;;;5.93;;
7162;SDS011;3623;47.098;15.446;2022-07-06T01:29:04;6.43;;;5.97;;
7162;SDS011;3623;47.098;15.446;2022-07-06T01:31:31;7.17;;;6.70;;
7162;SDS011;3623;47.098;15.446;2022-07-06T01:33:58;7.27;;;6.77;;
7162;SDS011;3623;47.098;15.446;2022-07-06T01:36:26;6.70;;;6.20;;
7162;SDS011;3623;47.098;15.446;2022-07-06T01:38:56;8.00;;;7.37;;
7162;SDS011;3623;47.098;15.446;2022-07-06T01:41:24;7.57;;;6.60;;
7162;SDS011;3623;47.098;15.446;2022-07-06T01:43:51;7.20;;;6.63;;
7162;SDS011;3623;47.098;15.446;2022-07-06T01:46:18;7.50;;;7.00;;
7162;SDS011;3623;47.098;15.446;2022-07-06T01:48:46;8.73;;;7.30;;
7162;SDS011;3623;47.098;15.446;2022-07-06T01:51:14;8.80;;;7.60;;
7162;SDS011;3623;47.098;15.446;2022-07-06T01:53:41;7.60;;;7.00;;
7162;SDS011;3623;47.098;15.446;2022-07-06T01:56:11;8.33;;;7.63;;
7162;SDS011;3623;47.098;15.446;2022-07-06T01:58:39;7.40;;;6.80;;
7162;SDS011;3623;47.098;15.446;2022-07-06T02:01:07;6.07;;;5.67;;
7162;SDS011;3623;47.098;15.446;2022-07-06T02:03:35;6.90;;;6.50;;
7162;SDS011;3623;47.098;15.446;2022-07-06T02:06:02;7.97;;;7.27;;
7162;SDS011;3623;47.098;15.446;2022-07-06T02:08:30;6.70;;;6.30;;
7162;SDS011;3623;47.098;15.446;2022-07-06T02:10:58;8.17;;;7.57;;
7162;SDS011;3623;47.098;15.446;2022-07-06T02:13:27;6.60;;;6.20;;
7162;SDS011;3623;47.098;15.446;2022-07-06T02:15:54;6.37;;;5.97;;
7162;SDS011;3623;47.098;15.446;2022-07-06T02:18:21;7.43;;;6.80;;
7162;SDS011;3623;47.098;15.446;2022-07-06T02:20:49;6.87;;;6.27;;
7162;SDS011;3623;47.098;15.446;2022-07-06T02:23:16;7.37;;;6.53;;
7162;SDS011;3623;47.098;15.446;2022-07-06T02:25:43;6.43;;;6.03;;
7162;SDS011;3623;47.098;15.446;2022-07-06T02:28:10;7.37;;;6.77;;
7162;SDS011;3623;47.098;15.446;2022-07-06T02:30:43;7.03;;;6.53;;
7162;SDS011;3623;47.098;15.446;2022-07-06T02:33:10;7.67;;;7.20;;
7162;SDS011;3623;47.098;15.446;2022-07-06T02:35:37;7.00;;;6.60;;
7162;SDS011;3623;47.098;15.446;2022-07-06T02:38:08;6.43;;;6.03;;
7162;SDS011;3623;47.098;15.446;2022-07-06T02:40:35;6.97;;;6.37;;
7162;SDS011;3623;47.098;15.446;2022-07-06T02:43:03;7.67;;;7.07;;
7162;SDS011;3623;47.098;15.446;2022-07-06T02:45:30;8.07;;;7.57;;
7162;SDS011;3623;47.098;15.446;2022-07-06T02:47:59;7.70;;;7.20;;
7162;SDS011;3623;47.098;15.446;2022-07-06T02:50:27;8.17;;;7.57;;
7162;SDS011;3623;47.098;15.446;2022-07-06T02:52:54;8.53;;;7.73;;
7162;SDS011;3623;47.098;15.446;2022-07-06T02:55:21;8.57;;;7.97;;
7162;SDS011;3623;47.098;15.446;2022-07-06T02:57:48;8.40;;;7.57;;
7162;SDS011;3623;47.098;15.446;2022-07-06T03:00:16;7.20;;;6.70;;
7162;SDS011;3623;47.098;15.446;2022-07-06T03:02:43;7.73;;;7.07;;
7162;SDS011;3623;47.098;15.446;2022-07-06T03:05:12;8.90;;;8.20;;
7162;SDS011;3623;47.098;15.446;2022-07-06T03:07:39;8.13;;;7.63;;
7162;SDS011;3623;47.098;15.446;2022-07-06T03:10:06;6.97;;;6.47;;
7162;SDS011;3623;47.098;15.446;2022-07-06T03:12:34;7.40;;;6.80;;
7162;SDS011;3623;47.098;15.446;2022-07-06T03:15:01;7.20;;;6.70;;
7162;SDS011;3623;47.098;15.446;2022-07-06T03:17:28;9.20;;;7.50;;
7162;SDS011;3623;47.098;15.446;2022-07-06T03:19:56;7.57;;;6.93;;
7162;SDS011;3623;47.098;15.446;2022-07-06T03:22:24;7.13;;;6.63;;
7162;SDS011;3623;47.098;15.446;2022-07-06T03:24:52;7.97;;;7.37;;
7162;SDS011;3623;47.098;15.446;2022-07-06T03:27:19;6.87;;;6.47;;
7162;SDS011;3623;47.098;15.446;2022-07-06T03:29:46;8.60;;;7.87;;
7162;SDS011;3623;47.098;15.446;2022-07-06T03:32:13;7.00;;;6.50;;
7162;SDS011;3623;47.098;15.446;2022-07-06T03:34:40;8.10;;;7.47;;
7162;SDS011;3623;47.098;15.446;2022-07-06T03:37:08;7.23;;;6.63;;
7162;SDS011;3623;47.098;15.446;2022-07-06T03:39:36;7.57;;;6.83;;
7162;SDS011;3623;47.098;15.446;2022-07-06T03:42:04;7.03;;;6.57;;
7162;SDS011;3623;47.098;15.446;2022-07-06T03:44:31;7.70;;;7.20;;
7162;SDS011;3623;47.098;15.446;2022-07-06T03:46:58;8.80;;;6.77;;
7162;SDS011;3623;47.098;15.446;2022-07-06T03:49:26;7.57;;;7.07;;
7162;SDS011;3623;47.098;15.446;2022-07-06T03:51:53;7.80;;;7.10;;
7162;SDS011;3623;47.098;15.446;2022-07-06T03:54:20;7.87;;;7.33;;
7162;SDS011;3623;47.098;15.446;2022-07-06T03:56:49;7.90;;;7.30;;
7162;SDS011;3623;47.098;15.446;2022-07-06T03:59:17;8.43;;;7.83;;
7162;SDS011;3623;47.098;15.446;2022-07-06T04:01:45;6.70;;;6.17;;
7162;SDS011;3623;47.098;15.446;2022-07-06T04:04:12;7.07;;;6.67;;
7162;SDS011;3623;47.098;15.446;2022-07-06T04:06:39;7.67;;;7.07;;
7162;SDS011;3623;47.098;15.446;2022-07-06T04:09:09;7.80;;;7.07;;
7162;SDS011;3623;47.098;15.446;2022-07-06T04:11:36;7.70;;;7.00;;
7162;SDS011;3623;47.098;15.446;2022-07-06T04:14:05;6.90;;;6.50;;
7162;SDS011;3623;47.098;15.446;2022-07-06T04:16:32;7.57;;;6.83;;
7162;SDS011;3623;47.098;15.446;2022-07-06T04:19:00;6.80;;;6.33;;
7162;SDS011;3623;47.098;15.446;2022-07-06T04:21:27;7.57;;;6.90;;
7162;SDS011;3623;47.098;15.446;2022-07-06T04:23:55;7.83;;;6.10;;
7162;SDS011;3623;47.098;15.446;2022-07-06T04:26:22;7.77;;;7.27;;
7162;SDS011;3623;47.098;15.446;2022-07-06T04:28:49;7.50;;;6.90;;
7162;SDS011;3623;47.098;15.446;2022-07-06T04:31:18;7.13;;;6.60;;
7162;SDS011;3623;47.098;15.446;2022-07-06T04:33:45;8.47;;;6.50;;
7162;SDS011;3623;47.098;15.446;2022-07-06T04:36:12;7.83;;;7.10;;
7162;SDS011;3623;47.098;15.446;2022-07-06T04:38:40;7.47;;;6.87;;
7162;SDS011;3623;47.098;15.446;2022-07-06T04:41:07;6.93;;;6.53;;
7162;SDS011;3623;47.098;15.446;2022-07-06T04:43:34;8.10;;;6.67;;
7162;SDS011;3623;47.098;15.446;2022-07-06T04:46:01;7.30;;;6.77;;
7162;SDS011;3623;47.098;15.446;2022-07-06T04:48:30;7.10;;;6.50;;
7162;SDS011;3623;47.098;15.446;2022-07-06T04:51:01;8.10;;;7.50;;
7162;SDS011;3623;47.098;15.446;2022-07-06T04:53:28;8.00;;;6.73;;
7162;SDS011;3623;47.098;15.446;2022-07-06T04:55:57;7.30;;;6.60;;
7162;SDS011;3623;47.098;15.446;2022-07-06T04:58:24;6.47;;;5.93;;
7162;SDS011;3623;47.098;15.446;2022-07-06T05:00:57;6.53;;;6.13;;
7162;SDS011;3623;47.098;15.446;2022-07-06T05:03:24;6.90;;;6.40;;
7162;SDS011;3623;47.098;15.446;2022-07-06T05:05:53;7.03;;;6.43;;
7162;SDS011;3623;47.098;15.446;2022-07-06T05:08:20;7.43;;;6.73;;
7162;SDS011;3623;47.098;15.446;2022-07-06T05:10:50;7.93;;;7.33;;
7162;SDS011;3623;47.098;15.446;2022-07-06T05:13:17;7.10;;;6.40;;
7162;SDS011;3623;47.098;15.446;2022-07-06T05:15:45;7.67;;;7.03;;
7162;SDS011;3623;47.098;15.446;2022-07-06T05:18:12;7.17;;;6.67;;
7162;SDS011;3623;47.098;15.446;2022-07-06T05:20:40;6.97;;;6.30;;
7162;SDS011;3623;47.098;15.446;2022-07-06T05:23:09;6.60;;;6.10;;
7162;SDS011;3623;47.098;15.446;2022-07-06T05:25:36;10.07;;;7.53;;
7162;SDS011;3623;47.098;15.446;2022-07-06T05:28:03;6.60;;;6.20;;
7162;SDS011;3623;47.098;15.446;2022-07-06T05:30:31;5.97;;;5.50;;
7162;SDS011;3623;47.098;15.446;2022-07-06T05:32:58;6.63;;;6.13;;
7162;SDS011;3623;47.098;15.446;2022-07-06T05:35:25;5.70;;;5.30;;
7162;SDS011;3623;47.098;15.446;2022-07-06T05:37:53;5.77;;;5.47;;
7162;SDS011;3623;47.098;15.446;2022-07-06T05:40:25;5.80;;;5.40;;
7162;SDS011;3623;47.098;15.446;2022-07-06T05:42:53;5.70;;;5.37;;
7162;SDS011;3623;47.098;15.446;2022-07-06T05:45:20;6.07;;;5.57;;
7162;SDS011;3623;47.098;15.446;2022-07-06T05:47:48;5.40;;;5.10;;
7162;SDS011;3623;47.098;15.446;2022-07-06T05:50:33;6.47;;;6.07;;
7162;SDS011;3623;47.098;15.446;2022-07-06T05:53:03;6.57;;;6.17;;
7162;SDS011;3623;47.098;15.446;2022-07-06T05:55:32;7.23;;;6.57;;
7162;SDS011;3623;47.098;15.446;2022-07-06T05:58:00;9.17;;;5.50;;
7162;SDS011;3623;47.098;15.446;2022-07-06T06:00:27;7.50;;;5.43;;
7162;SDS011;3623;47.098;15.446;2022-07-06T06:02:54;5.27;;;4.80;;
7162;SDS011;3623;47.098;15.446;2022-07-06T06:05:22;6.57;;;6.07;;
7162;SDS011;3623;47.098;15.446;2022-07-06T06:07:49;6.40;;;5.80;;
7162;SDS011;3623;47.098;15.446;2022-07-06T06:10:18;5.77;;;5.33;;
7162;SDS011;3623;47.098;15.446;2022-07-06T06:12:48;7.50;;;5.93;;
7162;SDS011;3623;47.098;15.446;2022-07-06T06:15:15;6.07;;;5.63;;
7162;SDS011;3623;47.098;15.446;2022-07-06T06:17:43;7.00;;;6.27;;
7162;SDS011;3623;47.098;15.446;2022-07-06T06:20:11;6.60;;;6.00;;
7162;SDS011;3623;47.098;15.446;2022-07-06T06:22:46;5.63;;;5.23;;
7162;SDS011;3623;47.098;15.446;2022-07-06T06:25:14;5.47;;;5.03;;
7162;SDS011;3623;47.098;15.446;2022-07-06T06:27:42;6.17;;;4.87;;
7162;SDS011;3623;47.098;15.446;2022-07-06T06:30:12;4.83;;;4.53;;
7162;SDS011;3623;47.098;15.446;2022-07-06T06:32:40;10.23;;;5.40;;
7162;SDS011;3623;47.098;15.446;2022-07-06T06:35:08;7.20;;;5.37;;
7162;SDS011;3623;47.098;15.446;2022-07-06T06:37:36;7.03;;;5.60;;
7162;SDS011;3623;47.098;15.446;2022-07-06T06:40:04;6.20;;;5.60;;
7162;SDS011;3623;47.098;15.446;2022-07-06T06:42:32;6.07;;;5.50;;
7162;SDS011;3623;47.098;15.446;2022-07-06T06:45:01;5.73;;;5.33;;
7162;SDS011;3623;47.098;15.446;2022-07-06T06:47:30;11.17;;;5.40;;
7162;SDS011;3623;47.098;15.446;2022-07-06T06:49:59;11.83;;;5.00;;
7162;SDS011;3623;47.098;15.446;2022-07-06T06:52:26;4.80;;;3.90;;
7162;SDS011;3623;47.098;15.446;2022-07-06T06:54:53;4.77;;;4.37;;
7162;SDS011;3623;47.098;15.446;2022-07-06T06:57:20;5.13;;;4.73;;
7162;SDS011;3623;47.098;15.446;2022-07-06T06:59:47;7.80;;;5.43;;
7162;SDS011;3623;47.098;15.446;2022-07-06T07:02:15;4.47;;;4.07;;
7162;SDS011;3623;47.098;15.446;2022-07-06T07:04:43;4.93;;;4.53;;
7162;SDS011;3623;47.098;15.446;2022-07-06T07:07:10;4.70;;;4.40;;
7162;SDS011;3623;47.098;15.446;2022-07-06T07:09:37;5.07;;;4.67;;
7162;SDS011;3623;47.098;15.446;2022-07-06T07:12:05;4.83;;;3.47;;
7162;SDS011;3623;47.098;15.446;2022-07-06T07:14:32;4.80;;;3.83;;
7162;SDS011;3623;47.098;15.446;2022-07-06T07:16:59;4.80;;;4.50;;
7162;SDS011;3623;47.098;15.446;2022-07-06T07:19:26;3.90;;;3.60;;
7162;SDS011;3623;47.098;15.446;2022-07-06T07:21:55;5.20;;;3.57;;
7162;SDS011;3623;47.098;15.446;2022-07-06T07:24:22;3.47;;;3.37;;
7162;SDS011;3623;47.098;15.446;2022-07-06T07:26:49;3.47;;;3.23;;
7162;SDS011;3623;47.098;15.446;2022-07-06T07:29:16;2.87;;;2.73;;
7162;SDS011;3623;47.098;15.446;2022-07-06T07:31:44;4.13;;;3.00;;
7162;SDS011;3623;47.098;15.446;2022-07-06T07:34:11;4.00;;;3.83;;
7162;SDS011;3623;47.098;15.446;2022-07-06T07:36:38;3.20;;;3.00;;
7162;SDS011;3623;47.098;15.446;2022-07-06T07:39:07;3.10;;;3.00;;
7162;SDS011;3623;47.098;15.446;2022-07-06T07:41:34;4.50;;;3.70;;
7162;SDS011;3623;47.098;15.446;2022-07-06T07:44:01;3.30;;;3.20;;
7162;SDS011;3623;47.098;15.446;2022-07-06T07:46:29;3.50;;;3.27;;
7162;SDS011;3623;47.098;15.446;2022-07-06T07:48:56;2.27;;;2.17;;
7162;SDS011;3623;47.098;15.446;2022-07-06T07:51:23;2.90;;;2.70;;
7162;SDS011;3623;47.098;15.446;2022-07-06T07:53:51;2.70;;;2.50;;
7162;SDS011;3623;47.098;15.446;2022-07-06T07:56:19;1.90;;;1.80;;
7162;SDS011;3623;47.098;15.446;2022-07-06T07:58:47;7.90;;;2.97;;
7162;SDS011;3623;47.098;15.446;2022-07-06T08:01:14;2.63;;;2.27;;
7162;SDS011;3623;47.098;15.446;2022-07-06T08:03:41;2.47;;;2.30;;
7162;SDS011;3623;47.098;15.446;2022-07-06T08:06:08;3.80;;;2.60;;
7162;SDS011;3623;47.098;15.446;2022-07-06T08:08:36;2.47;;;2.27;;
7162;SDS011;3623;47.098;15.446;2022-07-06T08:11:04;5.53;;;2.37;;
7162;SDS011;3623;47.098;15.446;2022-07-06T08:13:34;2.50;;;2.30;;
7162;SDS011;3623;47.098;15.446;2022-07-06T08:16:02;2.83;;;2.63;;
7162;SDS011;3623;47.098;15.446;2022-07-06T08:18:29;2.37;;;2.13;;
7162;SDS011;3623;47.098;15.446;2022-07-06T08:20:56;2.70;;;2.60;;
7162;SDS011;3623;47.098;15.446;2022-07-06T08:23:24;4.20;;;2.40;;
7162;SDS011;3623;47.098;15.446;2022-07-06T08:25:51;2.63;;;2.43;;
7162;SDS011;3623;47.098;15.446;2022-07-06T08:28:18;1.67;;;1.60;;
7162;SDS011;3623;47.098;15.446;2022-07-06T08:30:47;2.60;;;2.00;;
7162;SDS011;3623;47.098;15.446;2022-07-06T08:33:14;2.10;;;1.90;;
7162;SDS011;3623;47.098;15.446;2022-07-06T08:35:41;3.80;;;2.10;;
7162;SDS011;3623;47.098;15.446;2022-07-06T08:38:08;2.90;;;2.37;;
7162;SDS011;3623;47.098;15.446;2022-07-06T08:40:36;1.90;;;1.70;;
7162;SDS011;3623;47.098;15.446;2022-07-06T08:43:06;4.67;;;2.20;;
7162;SDS011;3623;47.098;15.446;2022-07-06T08:45:34;3.63;;;2.40;;
7162;SDS011;3623;47.098;15.446;2022-07-06T08:48:04;2.80;;;2.23;;
7162;SDS011;3623;47.098;15.446;2022-07-06T08:50:34;2.87;;;2.30;;
7162;SDS011;3623;47.098;15.446;2022-07-06T08:53:01;1.90;;;1.90;;
7162;SDS011;3623;47.098;15.446;2022-07-06T08:55:29;2.37;;;2.17;;
7162;SDS011;3623;47.098;15.446;2022-07-06T08:57:57;1.97;;;1.87;;
7162;SDS011;3623;47.098;15.446;2022-07-06T09:00:25;1.97;;;1.87;;
7162;SDS011;3623;47.098;15.446;2022-07-06T09:02:53;1.60;;;1.50;;
7162;SDS011;3623;47.098;15.446;2022-07-06T09:05:23;3.13;;;2.13;;
7162;SDS011;3623;47.098;15.446;2022-07-06T09:07:51;1.83;;;1.73;;
7162;SDS011;3623;47.098;15.446;2022-07-06T09:10:20;1.93;;;1.80;;
7162;SDS011;3623;47.098;15.446;2022-07-06T09:12:48;3.30;;;1.93;;
7162;SDS011;3623;47.098;15.446;2022-07-06T09:15:15;3.07;;;1.87;;
7162;SDS011;3623;47.098;15.446;2022-07-06T09:17:43;4.20;;;2.20;;
7162;SDS011;3623;47.098;15.446;2022-07-06T09:20:11;2.00;;;1.90;;
7162;SDS011;3623;47.098;15.446;2022-07-06T09:22:41;2.40;;;2.20;;
7162;SDS011;3623;47.098;15.446;2022-07-06T09:25:09;1.73;;;1.73;;
7162;SDS011;3623;47.098;15.446;2022-07-06T09:27:38;2.00;;;1.57;;
7162;SDS011;3623;47.098;15.446;2022-07-06T09:30:07;2.30;;;2.10;;
7162;SDS011;3623;47.098;15.446;2022-07-06T09:32:39;3.70;;;2.23;;
7162;SDS011;3623;47.098;15.446;2022-07-06T09:35:08;1.77;;;1.67;;
7162;SDS011;3623;47.098;15.446;2022-07-06T09:37:46;2.33;;;2.17;;
7162;SDS011;3623;47.098;15.446;2022-07-06T09:40:17;2.20;;;2.00;;
7162;SDS011;3623;47.098;15.446;2022-07-06T09:42:44;2.03;;;1.93;;
7162;SDS011;3623;47.098;15.446;2022-07-06T09:45:12;1.50;;;1.40;;
7162;SDS011;3623;47.098;15.446;2022-07-06T09:47:45;1.43;;;1.43;;
7162;SDS011;3623;47.098;15.446;2022-07-06T09:50:15;2.90;;;1.70;;
7162;SDS011;3623;47.098;15.446;2022-07-06T09:52:54;2.70;;;2.50;;
7162;SDS011;3623;47.098;15.446;2022-07-06T09:55:22;2.30;;;2.10;;
7162;SDS011;3623;47.098;15.446;2022-07-06T09:57:52;1.80;;;1.70;;
7162;SDS011;3623;47.098;15.446;2022-07-06T10:00:22;2.10;;;2.00;;
7162;SDS011;3623;47.098;15.446;2022-07-06T10:02:50;1.53;;;1.43;;
7162;SDS011;3623;47.098;15.446;2022-07-06T10:05:18;1.57;;;1.47;;
7162;SDS011;3623;47.098;15.446;2022-07-06T10:07:55;1.60;;;1.50;;
7162;SDS011;3623;47.098;15.446;2022-07-06T10:10:24;2.20;;;2.00;;
7162;SDS011;3623;47.098;15.446;2022-07-06T10:12:54;2.23;;;2.03;;
7162;SDS011;3623;47.098;15.446;2022-07-06T10:15:22;1.83;;;1.83;;
7162;SDS011;3623;47.098;15.446;2022-07-06T10:17:52;1.60;;;1.50;;
7162;SDS011;3623;47.098;15.446;2022-07-06T10:20:20;1.33;;;1.33;;
7162;SDS011;3623;47.098;15.446;2022-07-06T10:22:48;2.00;;;1.60;;
7162;SDS011;3623;47.098;15.446;2022-07-06T10:25:18;2.13;;;1.60;;
7162;SDS011;3623;47.098;15.446;2022-07-06T10:27:46;1.70;;;1.60;;
7162;SDS011;3623;47.098;15.446;2022-07-06T10:30:14;1.60;;;1.50;;
7162;SDS011;3623;47.098;15.446;2022-07-06T10:32:42;1.20;;;1.20;;
7162;SDS011;3623;47.098;15.446;2022-07-06T10:35:12;1.60;;;1.47;;
7162;SDS011;3623;47.098;15.446;2022-07-06T10:37:39;1.50;;;1.40;;
7162;SDS011;3623;47.098;15.446;2022-07-06T10:40:08;1.00;;;1.00;;
7162;SDS011;3623;47.098;15.446;2022-07-06T10:42:57;1.33;;;1.23;;
7162;SDS011;3623;47.098;15.446;2022-07-06T10:48:16;3.33;;;2.13;;
7162;SDS011;3623;47.098;15.446;2022-07-06T10:50:46;1.57;;;1.40;;
7162;SDS011;3623;47.098;15.446;2022-07-06T10:53:15;1.83;;;1.73;;
7162;SDS011;3623;47.098;15.446;2022-07-06T10:55:44;3.93;;;1.67;;
7162;SDS011;3623;47.098;15.446;2022-07-06T10:58:16;1.40;;;1.30;;
7162;SDS011;3623;47.098;15.446;2022-07-06T11:01:02;1.77;;;1.70;;
7162;SDS011;3623;47.098;15.446;2022-07-06T11:03:31;1.90;;;1.50;;
7162;SDS011;3623;47.098;15.446;2022-07-06T11:06:05;1.40;;;1.30;;
7162;SDS011;3623;47.098;15.446;2022-07-06T11:08:41;1.60;;;1.50;;
7162;SDS011;3623;47.098;15.446;2022-07-06T11:11:19;1.57;;;1.50;;
7162;SDS011;3623;47.098;15.446;2022-07-06T11:13:50;1.80;;;1.70;;
7162;SDS011;3623;47.098;15.446;2022-07-06T11:16:23;1.37;;;1.27;;
7162;SDS011;3623;47.098;15.446;2022-07-06T11:19:03;1.93;;;1.30;;
7162;SDS011;3623;47.098;15.446;2022-07-06T11:21:34;1.87;;;1.30;;
7162;SDS011;3623;47.098;15.446;2022-07-06T11:24:03;1.20;;;1.20;;
7162;SDS011;3623;47.098;15.446;2022-07-06T11:26:32;2.83;;;1.10;;
7162;SDS011;3623;47.098;15.446;2022-07-06T11:29:04;1.10;;;1.10;;
7162;SDS011;3623;47.098;15.446;2022-07-06T11:31:33;1.10;;;1.10;;
7162;SDS011;3623;47.098;15.446;2022-07-06T11:34:02;1.83;;;1.10;;
7162;SDS011;3623;47.098;15.446;2022-07-06T11:36:30;2.90;;;1.63;;
7162;SDS011;3623;47.098;15.446;2022-07-06T11:38:58;3.30;;;1.40;;
7162;SDS011;3623;47.098;15.446;2022-07-06T11:41:25;1.63;;;1.53;;
7162;SDS011;3623;47.098;15.446;2022-07-06T11:43:53;1.33;;;1.23;;
7162;SDS011;3623;47.098;15.446;2022-07-06T11:46:22;2.03;;;1.50;;
7162;SDS011;3623;47.098;15.446;2022-07-06T11:48:51;1.30;;;1.30;;
7162;SDS011;3623;47.098;15.446;2022-07-06T11:51:20;1.60;;;1.20;;
7162;SDS011;3623;47.098;15.446;2022-07-06T11:53:49;1.30;;;1.30;;
7162;SDS011;3623;47.098;15.446;2022-07-06T11:56:18;2.50;;;1.60;;
7162;SDS011;3623;47.098;15.446;2022-07-06T11:58:48;1.73;;;1.50;;
7162;SDS011;3623;47.098;15.446;2022-07-06T12:01:16;1.83;;;1.30;;
7162;SDS011;3623;47.098;15.446;2022-07-06T12:03:45;5.20;;;1.77;;
7162;SDS011;3623;47.098;15.446;2022-07-06T12:06:14;1.20;;;1.20;;
7162;SDS011;3623;47.098;15.446;2022-07-06T12:08:44;0.90;;;0.90;;
7162;SDS011;3623;47.098;15.446;2022-07-06T12:11:22;3.73;;;1.20;;
7162;SDS011;3623;47.098;15.446;2022-07-06T12:13:51;1.50;;;1.30;;
7162;SDS011;3623;47.098;15.446;2022-07-06T12:16:20;1.40;;;1.30;;
7162;SDS011;3623;47.098;15.446;2022-07-06T12:18:50;1.73;;;1.43;;
7162;SDS011;3623;47.098;15.446;2022-07-06T12:21:18;1.50;;;1.40;;
7162;SDS011;3623;47.098;15.446;2022-07-06T12:23:47;1.57;;;1.43;;
7162;SDS011;3623;47.098;15.446;2022-07-06T12:26:16;1.53;;;1.53;;
7162;SDS011;3623;47.098;15.446;2022-07-06T12:28:44;1.53;;;1.07;;
7162;SDS011;3623;47.098;15.446;2022-07-06T12:31:30;1.40;;;1.30;;
7162;SDS011;3623;47.098;15.446;2022-07-06T12:33:59;1.30;;;1.20;;
7162;SDS011;3623;47.098;15.446;2022-07-06T12:36:26;4.73;;;1.40;;
7162;SDS011;3623;47.098;15.446;2022-07-06T12:38:54;1.53;;;1.43;;
7162;SDS011;3623;47.098;15.446;2022-07-06T12:41:27;1.70;;;1.60;;
7162;SDS011;3623;47.098;15.446;2022-07-06T12:44:00;1.20;;;1.20;;
7162;SDS011;3623;47.098;15.446;2022-07-06T12:46:30;1.50;;;1.40;;
7162;SDS011;3623;47.098;15.446;2022-07-06T12:49:00;1.37;;;1.27;;
7162;SDS011;3623;47.098;15.446;2022-07-06T12:51:28;1.60;;;1.50;;
7162;SDS011;3623;47.098;15.446;2022-07-06T12:54:11;2.80;;;1.47;;
7162;SDS011;3623;47.098;15.446;2022-07-06T12:59:28;1.83;;;1.60;;
7162;SDS011;3623;47.098;15.446;2022-07-06T13:01:57;2.40;;;1.20;;
7162;SDS011;3623;47.098;15.446;2022-07-06T13:04:26;1.60;;;1.50;;
7162;SDS011;3623;47.098;15.446;2022-07-06T13:06:55;4.67;;;2.20;;
7162;SDS011;3623;47.098;15.446;2022-07-06T13:09:22;1.57;;;1.50;;
7162;SDS011;3623;47.098;15.446;2022-07-06T13:11:49;1.57;;;1.47;;
7162;SDS011;3623;47.098;15.446;2022-07-06T13:14:17;1.83;;;1.73;;
7162;SDS011;3623;47.098;15.446;2022-07-06T13:16:45;2.80;;;2.60;;
7162;SDS011;3623;47.098;15.446;2022-07-06T13:19:14;1.60;;;1.30;;
7162;SDS011;3623;47.098;15.446;2022-07-06T13:21:53;1.60;;;1.50;;
7162;SDS011;3623;47.098;15.446;2022-07-06T13:24:20;3.03;;;1.20;;
7162;SDS011;3623;47.098;15.446;2022-07-06T13:26:47;1.30;;;1.20;;
7162;SDS011;3623;47.098;15.446;2022-07-06T13:29:14;1.83;;;1.73;;
7162;SDS011;3623;47.098;15.446;2022-07-06T13:31:41;2.13;;;2.03;;
7162;SDS011;3623;47.098;15.446;2022-07-06T13:34:09;2.30;;;2.10;;
7162;SDS011;3623;47.098;15.446;2022-07-06T13:36:38;1.60;;;1.50;;
7162;SDS011;3623;47.098;15.446;2022-07-06T13:39:08;1.37;;;1.30;;
7162;SDS011;3623;47.098;15.446;2022-07-06T13:41:35;1.63;;;1.50;;
7162;SDS011;3623;47.098;15.446;2022-07-06T13:44:03;1.73;;;1.63;;
7162;SDS011;3623;47.098;15.446;2022-07-06T13:46:32;1.73;;;1.47;;
7162;SDS011;3623;47.098;15.446;2022-07-06T13:49:01;2.20;;;1.53;;
7162;SDS011;3623;47.098;15.446;2022-07-06T13:51:29;1.50;;;1.50;;
7162;SDS011;3623;47.098;15.446;2022-07-06T13:53:57;2.17;;;1.07;;
7162;SDS011;3623;47.098;15.446;2022-07-06T13:56:26;3.10;;;1.43;;
7162;SDS011;3623;47.098;15.446;2022-07-06T13:58:55;1.53;;;1.50;;
7162;SDS011;3623;47.098;15.446;2022-07-06T14:01:23;1.47;;;1.40;;
7162;SDS011;3623;47.098;15.446;2022-07-06T14:03:51;1.40;;;1.30;;
7162;SDS011;3623;47.098;15.446;2022-07-06T14:06:18;1.20;;;1.20;;
7162;SDS011;3623;47.098;15.446;2022-07-06T14:11:17;1.60;;;1.50;;
7162;SDS011;3623;47.098;15.446;2022-07-06T14:13:45;2.93;;;1.40;;
7162;SDS011;3623;47.098;15.446;2022-07-06T14:16:13;1.60;;;1.50;;
7162;SDS011;3623;47.098;15.446;2022-07-06T14:18:40;1.50;;;1.40;;
7162;SDS011;3623;47.098;15.446;2022-07-06T14:21:08;2.77;;;1.37;;
7162;SDS011;3623;47.098;15.446;2022-07-06T14:23:36;3.30;;;1.30;;
7162;SDS011;3623;47.098;15.446;2022-07-06T14:26:03;2.20;;;1.40;;
7162;SDS011;3623;47.098;15.446;2022-07-06T14:28:31;1.60;;;1.50;;
7162;SDS011;3623;47.098;15.446;2022-07-06T14:31:00;0.90;;;0.90;;
7162;SDS011;3623;47.098;15.446;2022-07-06T14:33:28;1.00;;;1.00;;
7162;SDS011;3623;47.098;15.446;2022-07-06T14:35:55;1.53;;;1.43;;
7162;SDS011;3623;47.098;15.446;2022-07-06T14:38:22;1.70;;;1.60;;
7162;SDS011;3623;47.098;15.446;2022-07-06T14:40:51;2.13;;;1.43;;
7162;SDS011;3623;47.098;15.446;2022-07-06T14:43:19;1.73;;;1.63;;
7162;SDS011;3623;47.098;15.446;2022-07-06T14:45:48;2.77;;;1.23;;
7162;SDS011;3623;47.098;15.446;2022-07-06T14:48:17;1.63;;;1.43;;
7162;SDS011;3623;47.098;15.446;2022-07-06T14:50:45;2.40;;;1.30;;
7162;SDS011;3623;47.098;15.446;2022-07-06T14:53:12;1.80;;;1.70;;
7162;SDS011;3623;47.098;15.446;2022-07-06T14:55:39;1.37;;;1.20;;
7162;SDS011;3623;47.098;15.446;2022-07-06T14:58:06;1.73;;;1.63;;
7162;SDS011;3623;47.098;15.446;2022-07-06T15:00:34;1.40;;;1.30;;
7162;SDS011;3623;47.098;15.446;2022-07-06T15:03:01;1.50;;;1.40;;
7162;SDS011;3623;47.098;15.446;2022-07-06T15:05:30;1.57;;;1.47;;
7162;SDS011;3623;47.098;15.446;2022-07-06T15:07:58;1.20;;;1.10;;
7162;SDS011;3623;47.098;15.446;2022-07-06T15:10:26;1.70;;;1.40;;
7162;SDS011;3623;47.098;15.446;2022-07-06T15:12:53;1.57;;;1.40;;
7162;SDS011;3623;47.098;15.446;2022-07-06T15:15:21;1.40;;;1.30;;
7162;SDS011;3623;47.098;15.446;2022-07-06T15:17:48;1.50;;;1.40;;